sensor_id;sensor_type;location;lat;lon;timestamp;P1;durP1;ratioP1;P2;durP2;ratioP2
80131;SDS011;69442;51.442;10.564;2023-04-29T00:00:17;6.78;;;4.60;;
80131;SDS011;69442;51.442;10.564;2023-04-29T00:02:43;7.13;;;4.88;;
80131;SDS011;69442;51.442;10.564;2023-04-29T00:05:08;8.43;;;4.60;;
80131;SDS011;69442;51.442;10.564;2023-04-29T00:07:33;7.00;;;4.75;;
80131;SDS011;69442;51.442;10.564;2023-04-29T00:10:00;7.43;;;4.72;;
80131;SDS011;69442;51.442;10.564;2023-04-29T00:12:26;6.22;;;4.38;;
80131;SDS011;69442;51.442;10.564;2023-04-29T00:14:52;6.75;;;4.88;;
80131;SDS011;69442;51.442;10.564;2023-04-29T00:17:17;6.65;;;4.95;;
80131;SDS011;69442;51.442;10.564;2023-04-29T00:19:43;8.50;;;5.68;;
80131;SDS011;69442;51.442;10.564;2023-04-29T00:22:09;10.30;;;6.88;;
80131;SDS011;69442;51.442;10.564;2023-04-29T00:24:34;9.00;;;6.30;;
80131;SDS011;69442;51.442;10.564;2023-04-29T00:27:00;9.20;;;6.47;;
80131;SDS011;69442;51.442;10.564;2023-04-29T00:29:26;10.02;;;6.47;;
80131;SDS011;69442;51.442;10.564;2023-04-29T00:31:52;8.70;;;5.63;;
80131;SDS011;69442;51.442;10.564;2023-04-29T00:34:17;10.35;;;6.40;;
80131;SDS011;69442;51.442;10.564;2023-04-29T00:36:43;10.45;;;6.32;;
80131;SDS011;69442;51.442;10.564;2023-04-29T00:39:08;9.95;;;5.97;;
80131;SDS011;69442;51.442;10.564;2023-04-29T00:41:33;10.13;;;6.25;;
80131;SDS011;69442;51.442;10.564;2023-04-29T00:43:59;10.77;;;7.20;;
80131;SDS011;69442;51.442;10.564;2023-04-29T00:46:25;11.05;;;7.05;;
80131;SDS011;69442;51.442;10.564;2023-04-29T00:48:51;11.40;;;6.90;;
80131;SDS011;69442;51.442;10.564;2023-04-29T00:51:16;11.07;;;6.90;;
80131;SDS011;69442;51.442;10.564;2023-04-29T00:53:42;11.40;;;7.55;;
80131;SDS011;69442;51.442;10.564;2023-04-29T00:56:08;11.55;;;7.40;;
80131;SDS011;69442;51.442;10.564;2023-04-29T00:58:34;12.98;;;8.35;;
80131;SDS011;69442;51.442;10.564;2023-04-29T01:01:00;12.85;;;7.90;;
80131;SDS011;69442;51.442;10.564;2023-04-29T01:03:27;12.07;;;7.25;;
80131;SDS011;69442;51.442;10.564;2023-04-29T01:11:29;13.05;;;8.18;;
80131;SDS011;69442;51.442;10.564;2023-04-29T01:13:59;15.20;;;8.52;;
80131;SDS011;69442;51.442;10.564;2023-04-29T01:16:31;9.98;;;6.07;;
80131;SDS011;69442;51.442;10.564;2023-04-29T01:19:03;5.05;;;3.17;;
80131;SDS011;69442;51.442;10.564;2023-04-29T01:21:46;12.57;;;8.43;;
80131;SDS011;69442;51.442;10.564;2023-04-29T01:24:15;11.48;;;7.35;;
80131;SDS011;69442;51.442;10.564;2023-04-29T01:26:45;12.05;;;7.90;;
80131;SDS011;69442;51.442;10.564;2023-04-29T01:29:21;12.43;;;7.40;;
80131;SDS011;69442;51.442;10.564;2023-04-29T01:34:50;11.90;;;6.90;;
80131;SDS011;69442;51.442;10.564;2023-04-29T01:37:32;13.52;;;7.65;;
80131;SDS011;69442;51.442;10.564;2023-04-29T01:40:15;11.02;;;6.70;;
80131;SDS011;69442;51.442;10.564;2023-04-29T01:42:54;11.55;;;7.60;;
80131;SDS011;69442;51.442;10.564;2023-04-29T01:45:25;9.02;;;5.88;;
80131;SDS011;69442;51.442;10.564;2023-04-29T01:47:52;9.45;;;5.68;;
80131;SDS011;69442;51.442;10.564;2023-04-29T01:50:22;9.40;;;5.72;;
80131;SDS011;69442;51.442;10.564;2023-04-29T01:52:48;9.82;;;5.40;;
80131;SDS011;69442;51.442;10.564;2023-04-29T01:55:13;11.55;;;5.90;;
80131;SDS011;69442;51.442;10.564;2023-04-29T01:57:38;7.18;;;4.70;;
80131;SDS011;69442;51.442;10.564;2023-04-29T02:00:04;8.18;;;5.05;;
80131;SDS011;69442;51.442;10.564;2023-04-29T02:02:30;9.45;;;5.75;;
80131;SDS011;69442;51.442;10.564;2023-04-29T02:04:55;8.35;;;5.40;;
80131;SDS011;69442;51.442;10.564;2023-04-29T02:07:21;10.95;;;6.50;;
80131;SDS011;69442;51.442;10.564;2023-04-29T02:09:46;13.05;;;5.97;;
80131;SDS011;69442;51.442;10.564;2023-04-29T02:12:12;11.18;;;5.90;;
80131;SDS011;69442;51.442;10.564;2023-04-29T02:14:37;9.60;;;5.70;;
80131;SDS011;69442;51.442;10.564;2023-04-29T02:17:03;9.20;;;6.00;;
80131;SDS011;69442;51.442;10.564;2023-04-29T02:19:28;8.57;;;5.60;;
80131;SDS011;69442;51.442;10.564;2023-04-29T02:21:54;7.90;;;5.13;;
80131;SDS011;69442;51.442;10.564;2023-04-29T02:24:19;10.02;;;6.13;;
80131;SDS011;69442;51.442;10.564;2023-04-29T02:26:45;9.68;;;6.13;;
80131;SDS011;69442;51.442;10.564;2023-04-29T02:29:10;8.90;;;5.50;;
80131;SDS011;69442;51.442;10.564;2023-04-29T02:31:35;10.05;;;6.88;;
80131;SDS011;69442;51.442;10.564;2023-04-29T02:34:01;9.88;;;5.65;;
80131;SDS011;69442;51.442;10.564;2023-04-29T02:36:26;10.25;;;6.03;;
80131;SDS011;69442;51.442;10.564;2023-04-29T02:38:52;8.63;;;5.82;;
80131;SDS011;69442;51.442;10.564;2023-04-29T02:41:19;9.48;;;5.85;;
80131;SDS011;69442;51.442;10.564;2023-04-29T02:43:45;10.43;;;6.72;;
80131;SDS011;69442;51.442;10.564;2023-04-29T02:46:11;8.98;;;5.55;;
80131;SDS011;69442;51.442;10.564;2023-04-29T02:48:36;12.30;;;6.53;;
80131;SDS011;69442;51.442;10.564;2023-04-29T02:51:01;10.57;;;6.50;;
80131;SDS011;69442;51.442;10.564;2023-04-29T02:53:27;9.93;;;6.07;;
80131;SDS011;69442;51.442;10.564;2023-04-29T02:55:52;9.73;;;6.22;;
80131;SDS011;69442;51.442;10.564;2023-04-29T02:58:18;9.70;;;6.25;;
80131;SDS011;69442;51.442;10.564;2023-04-29T03:00:43;10.45;;;6.75;;
80131;SDS011;69442;51.442;10.564;2023-04-29T03:03:09;10.13;;;6.53;;
80131;SDS011;69442;51.442;10.564;2023-04-29T03:05:34;11.20;;;5.85;;
80131;SDS011;69442;51.442;10.564;2023-04-29T03:08:00;10.05;;;6.00;;
80131;SDS011;69442;51.442;10.564;2023-04-29T03:10:26;9.43;;;6.13;;
80131;SDS011;69442;51.442;10.564;2023-04-29T03:12:51;13.90;;;5.60;;
80131;SDS011;69442;51.442;10.564;2023-04-29T03:15:17;10.07;;;6.15;;
80131;SDS011;69442;51.442;10.564;2023-04-29T03:17:44;10.27;;;6.40;;
80131;SDS011;69442;51.442;10.564;2023-04-29T03:20:10;10.32;;;5.57;;
80131;SDS011;69442;51.442;10.564;2023-04-29T03:22:36;9.82;;;6.00;;
80131;SDS011;69442;51.442;10.564;2023-04-29T03:25:01;8.20;;;5.22;;
80131;SDS011;69442;51.442;10.564;2023-04-29T03:27:27;8.88;;;5.70;;
80131;SDS011;69442;51.442;10.564;2023-04-29T03:29:53;9.20;;;5.82;;
80131;SDS011;69442;51.442;10.564;2023-04-29T03:32:18;9.82;;;6.50;;
80131;SDS011;69442;51.442;10.564;2023-04-29T03:34:43;9.98;;;5.40;;
80131;SDS011;69442;51.442;10.564;2023-04-29T03:37:09;8.73;;;5.80;;
80131;SDS011;69442;51.442;10.564;2023-04-29T03:39:34;8.82;;;5.53;;
80131;SDS011;69442;51.442;10.564;2023-04-29T03:41:59;9.38;;;5.57;;
80131;SDS011;69442;51.442;10.564;2023-04-29T03:44:25;9.88;;;6.15;;
80131;SDS011;69442;51.442;10.564;2023-04-29T03:46:51;8.88;;;5.20;;
80131;SDS011;69442;51.442;10.564;2023-04-29T03:49:16;8.98;;;5.50;;
80131;SDS011;69442;51.442;10.564;2023-04-29T03:51:41;8.50;;;5.53;;
80131;SDS011;69442;51.442;10.564;2023-04-29T03:54:09;10.70;;;6.30;;
80131;SDS011;69442;51.442;10.564;2023-04-29T03:56:35;8.65;;;5.78;;
80131;SDS011;69442;51.442;10.564;2023-04-29T03:59:00;10.77;;;6.45;;
80131;SDS011;69442;51.442;10.564;2023-04-29T04:01:26;9.50;;;6.03;;
80131;SDS011;69442;51.442;10.564;2023-04-29T04:03:51;11.15;;;6.75;;
80131;SDS011;69442;51.442;10.564;2023-04-29T04:06:17;8.77;;;5.68;;
80131;SDS011;69442;51.442;10.564;2023-04-29T04:08:42;8.35;;;5.43;;
80131;SDS011;69442;51.442;10.564;2023-04-29T04:11:07;11.48;;;6.55;;
80131;SDS011;69442;51.442;10.564;2023-04-29T04:13:33;9.13;;;5.07;;
80131;SDS011;69442;51.442;10.564;2023-04-29T04:15:59;8.52;;;4.85;;
80131;SDS011;69442;51.442;10.564;2023-04-29T04:18:24;7.72;;;4.70;;
80131;SDS011;69442;51.442;10.564;2023-04-29T04:20:50;8.73;;;5.05;;
80131;SDS011;69442;51.442;10.564;2023-04-29T04:23:15;8.65;;;5.05;;
80131;SDS011;69442;51.442;10.564;2023-04-29T04:25:47;7.57;;;4.50;;
80131;SDS011;69442;51.442;10.564;2023-04-29T04:28:13;7.97;;;4.72;;
80131;SDS011;69442;51.442;10.564;2023-04-29T04:30:40;7.28;;;4.85;;
80131;SDS011;69442;51.442;10.564;2023-04-29T04:33:05;7.68;;;4.57;;
80131;SDS011;69442;51.442;10.564;2023-04-29T04:35:31;7.63;;;4.70;;
80131;SDS011;69442;51.442;10.564;2023-04-29T04:37:56;8.07;;;4.63;;
80131;SDS011;69442;51.442;10.564;2023-04-29T04:40:22;8.20;;;4.32;;
80131;SDS011;69442;51.442;10.564;2023-04-29T04:42:48;8.13;;;4.78;;
80131;SDS011;69442;51.442;10.564;2023-04-29T04:45:13;7.75;;;3.90;;
80131;SDS011;69442;51.442;10.564;2023-04-29T04:47:39;6.30;;;3.60;;
80131;SDS011;69442;51.442;10.564;2023-04-29T04:50:05;6.03;;;4.00;;
80131;SDS011;69442;51.442;10.564;2023-04-29T04:52:31;4.95;;;3.05;;
80131;SDS011;69442;51.442;10.564;2023-04-29T04:54:56;5.60;;;3.58;;
80131;SDS011;69442;51.442;10.564;2023-04-29T04:57:22;6.35;;;3.83;;
80131;SDS011;69442;51.442;10.564;2023-04-29T04:59:47;5.28;;;3.38;;
80131;SDS011;69442;51.442;10.564;2023-04-29T05:02:13;6.03;;;3.22;;
80131;SDS011;69442;51.442;10.564;2023-04-29T05:04:38;6.13;;;3.72;;
80131;SDS011;69442;51.442;10.564;2023-04-29T05:07:04;4.68;;;3.05;;
80131;SDS011;69442;51.442;10.564;2023-04-29T05:09:29;7.00;;;3.78;;
80131;SDS011;69442;51.442;10.564;2023-04-29T05:11:55;6.55;;;3.85;;
80131;SDS011;69442;51.442;10.564;2023-04-29T05:14:20;6.40;;;4.00;;
80131;SDS011;69442;51.442;10.564;2023-04-29T05:16:46;6.22;;;4.07;;
80131;SDS011;69442;51.442;10.564;2023-04-29T05:19:11;8.32;;;4.18;;
80131;SDS011;69442;51.442;10.564;2023-04-29T05:21:36;7.72;;;4.53;;
80131;SDS011;69442;51.442;10.564;2023-04-29T05:24:02;6.53;;;4.35;;
80131;SDS011;69442;51.442;10.564;2023-04-29T05:26:28;6.43;;;4.28;;
80131;SDS011;69442;51.442;10.564;2023-04-29T05:28:53;7.57;;;4.68;;
80131;SDS011;69442;51.442;10.564;2023-04-29T05:31:19;8.98;;;4.93;;
80131;SDS011;69442;51.442;10.564;2023-04-29T05:33:45;8.40;;;5.30;;
80131;SDS011;69442;51.442;10.564;2023-04-29T05:36:10;8.70;;;5.15;;
80131;SDS011;69442;51.442;10.564;2023-04-29T05:38:36;9.52;;;5.70;;
80131;SDS011;69442;51.442;10.564;2023-04-29T05:41:02;9.40;;;5.57;;
80131;SDS011;69442;51.442;10.564;2023-04-29T05:43:28;9.05;;;4.88;;
80131;SDS011;69442;51.442;10.564;2023-04-29T05:45:53;10.77;;;5.97;;
80131;SDS011;69442;51.442;10.564;2023-04-29T05:48:19;6.10;;;3.50;;
80131;SDS011;69442;51.442;10.564;2023-04-29T05:50:45;7.78;;;5.05;;
80131;SDS011;69442;51.442;10.564;2023-04-29T05:53:12;8.85;;;5.03;;
80131;SDS011;69442;51.442;10.564;2023-04-29T05:55:38;9.05;;;4.95;;
80131;SDS011;69442;51.442;10.564;2023-04-29T05:58:03;8.27;;;5.15;;
80131;SDS011;69442;51.442;10.564;2023-04-29T06:00:29;8.90;;;5.22;;
80131;SDS011;69442;51.442;10.564;2023-04-29T06:02:55;6.80;;;3.90;;
80131;SDS011;69442;51.442;10.564;2023-04-29T06:05:21;7.88;;;4.47;;
80131;SDS011;69442;51.442;10.564;2023-04-29T06:07:46;7.30;;;4.32;;
80131;SDS011;69442;51.442;10.564;2023-04-29T06:10:12;7.10;;;4.05;;
80131;SDS011;69442;51.442;10.564;2023-04-29T06:12:37;6.13;;;4.25;;
80131;SDS011;69442;51.442;10.564;2023-04-29T06:15:03;7.22;;;4.72;;
80131;SDS011;69442;51.442;10.564;2023-04-29T06:17:28;8.07;;;4.35;;
80131;SDS011;69442;51.442;10.564;2023-04-29T06:19:54;7.38;;;4.10;;
80131;SDS011;69442;51.442;10.564;2023-04-29T06:22:20;8.18;;;4.90;;
80131;SDS011;69442;51.442;10.564;2023-04-29T06:24:45;7.60;;;4.10;;
80131;SDS011;69442;51.442;10.564;2023-04-29T06:27:14;7.60;;;4.55;;
80131;SDS011;69442;51.442;10.564;2023-04-29T06:29:39;9.00;;;5.28;;
80131;SDS011;69442;51.442;10.564;2023-04-29T06:32:05;9.90;;;5.85;;
80131;SDS011;69442;51.442;10.564;2023-04-29T06:34:30;9.70;;;6.28;;
80131;SDS011;69442;51.442;10.564;2023-04-29T06:36:56;7.82;;;4.85;;
80131;SDS011;69442;51.442;10.564;2023-04-29T06:39:21;10.50;;;5.47;;
80131;SDS011;69442;51.442;10.564;2023-04-29T06:41:46;11.05;;;6.05;;
80131;SDS011;69442;51.442;10.564;2023-04-29T06:44:12;13.73;;;6.22;;
80131;SDS011;69442;51.442;10.564;2023-04-29T06:46:37;10.60;;;6.63;;
80131;SDS011;69442;51.442;10.564;2023-04-29T06:49:03;9.77;;;5.82;;
80131;SDS011;69442;51.442;10.564;2023-04-29T06:51:28;11.05;;;6.68;;
80131;SDS011;69442;51.442;10.564;2023-04-29T06:53:56;11.68;;;6.50;;
80131;SDS011;69442;51.442;10.564;2023-04-29T06:56:21;9.63;;;5.60;;
80131;SDS011;69442;51.442;10.564;2023-04-29T06:58:47;9.07;;;5.88;;
80131;SDS011;69442;51.442;10.564;2023-04-29T07:01:13;12.63;;;6.68;;
80131;SDS011;69442;51.442;10.564;2023-04-29T07:03:38;40.92;;;24.60;;
80131;SDS011;69442;51.442;10.564;2023-04-29T07:06:04;9.60;;;6.20;;
80131;SDS011;69442;51.442;10.564;2023-04-29T07:08:30;15.10;;;10.02;;
80131;SDS011;69442;51.442;10.564;2023-04-29T07:10:56;10.95;;;6.63;;
80131;SDS011;69442;51.442;10.564;2023-04-29T07:13:22;11.43;;;6.70;;
80131;SDS011;69442;51.442;10.564;2023-04-29T07:15:48;8.90;;;5.47;;
80131;SDS011;69442;51.442;10.564;2023-04-29T07:18:13;8.60;;;5.28;;
80131;SDS011;69442;51.442;10.564;2023-04-29T07:20:38;12.40;;;5.55;;
80131;SDS011;69442;51.442;10.564;2023-04-29T07:23:04;10.30;;;6.53;;
80131;SDS011;69442;51.442;10.564;2023-04-29T07:25:29;11.90;;;5.93;;
80131;SDS011;69442;51.442;10.564;2023-04-29T07:27:55;8.70;;;5.13;;
80131;SDS011;69442;51.442;10.564;2023-04-29T07:30:21;10.98;;;6.97;;
80131;SDS011;69442;51.442;10.564;2023-04-29T07:32:49;10.70;;;6.20;;
80131;SDS011;69442;51.442;10.564;2023-04-29T07:35:14;9.88;;;6.13;;
80131;SDS011;69442;51.442;10.564;2023-04-29T07:37:40;10.32;;;5.53;;
80131;SDS011;69442;51.442;10.564;2023-04-29T07:40:07;8.35;;;5.35;;
80131;SDS011;69442;51.442;10.564;2023-04-29T07:42:33;8.88;;;5.90;;
80131;SDS011;69442;51.442;10.564;2023-04-29T07:44:58;8.95;;;6.53;;
80131;SDS011;69442;51.442;10.564;2023-04-29T07:47:24;11.93;;;7.38;;
80131;SDS011;69442;51.442;10.564;2023-04-29T07:49:49;8.30;;;5.68;;
80131;SDS011;69442;51.442;10.564;2023-04-29T07:52:15;9.13;;;6.30;;
80131;SDS011;69442;51.442;10.564;2023-04-29T07:54:41;8.45;;;5.78;;
80131;SDS011;69442;51.442;10.564;2023-04-29T07:57:06;10.55;;;6.57;;
80131;SDS011;69442;51.442;10.564;2023-04-29T07:59:31;9.38;;;6.72;;
80131;SDS011;69442;51.442;10.564;2023-04-29T08:01:57;8.95;;;6.35;;
80131;SDS011;69442;51.442;10.564;2023-04-29T08:04:22;9.95;;;7.75;;
80131;SDS011;69442;51.442;10.564;2023-04-29T08:06:48;14.75;;;7.30;;
80131;SDS011;69442;51.442;10.564;2023-04-29T08:09:14;10.65;;;7.68;;
80131;SDS011;69442;51.442;10.564;2023-04-29T08:11:40;10.60;;;6.57;;
80131;SDS011;69442;51.442;10.564;2023-04-29T08:14:05;11.57;;;8.32;;
80131;SDS011;69442;51.442;10.564;2023-04-29T08:16:31;10.68;;;7.10;;
80131;SDS011;69442;51.442;10.564;2023-04-29T08:18:56;9.82;;;7.07;;
80131;SDS011;69442;51.442;10.564;2023-04-29T08:21:22;11.55;;;7.63;;
80131;SDS011;69442;51.442;10.564;2023-04-29T08:23:47;14.20;;;7.00;;
80131;SDS011;69442;51.442;10.564;2023-04-29T08:26:13;11.07;;;7.50;;
80131;SDS011;69442;51.442;10.564;2023-04-29T08:28:38;14.45;;;9.15;;
80131;SDS011;69442;51.442;10.564;2023-04-29T08:31:04;9.82;;;6.90;;
80131;SDS011;69442;51.442;10.564;2023-04-29T08:33:34;13.20;;;8.15;;
80131;SDS011;69442;51.442;10.564;2023-04-29T08:35:59;13.10;;;8.30;;
80131;SDS011;69442;51.442;10.564;2023-04-29T08:38:27;11.10;;;7.65;;
80131;SDS011;69442;51.442;10.564;2023-04-29T08:40:53;12.13;;;8.00;;
80131;SDS011;69442;51.442;10.564;2023-04-29T08:43:18;10.18;;;7.40;;
80131;SDS011;69442;51.442;10.564;2023-04-29T08:45:45;12.25;;;8.52;;
80131;SDS011;69442;51.442;10.564;2023-04-29T08:48:12;13.40;;;8.10;;
80131;SDS011;69442;51.442;10.564;2023-04-29T08:50:41;13.73;;;9.25;;
80131;SDS011;69442;51.442;10.564;2023-04-29T08:53:07;12.85;;;8.88;;
80131;SDS011;69442;51.442;10.564;2023-04-29T08:55:43;15.25;;;9.88;;
80131;SDS011;69442;51.442;10.564;2023-04-29T08:58:10;15.07;;;9.85;;
80131;SDS011;69442;51.442;10.564;2023-04-29T09:00:36;15.82;;;9.93;;
80131;SDS011;69442;51.442;10.564;2023-04-29T09:03:12;16.15;;;10.02;;
80131;SDS011;69442;51.442;10.564;2023-04-29T09:05:41;16.23;;;10.43;;
80131;SDS011;69442;51.442;10.564;2023-04-29T09:08:10;16.35;;;10.18;;
80131;SDS011;69442;51.442;10.564;2023-04-29T09:10:36;14.90;;;9.43;;
80131;SDS011;69442;51.442;10.564;2023-04-29T09:13:03;17.73;;;11.38;;
80131;SDS011;69442;51.442;10.564;2023-04-29T09:15:32;15.00;;;9.65;;
80131;SDS011;69442;51.442;10.564;2023-04-29T09:18:00;14.82;;;10.43;;
80131;SDS011;69442;51.442;10.564;2023-04-29T09:20:25;13.27;;;8.65;;
80131;SDS011;69442;51.442;10.564;2023-04-29T09:22:59;13.30;;;8.68;;
80131;SDS011;69442;51.442;10.564;2023-04-29T09:25:26;14.13;;;9.90;;
80131;SDS011;69442;51.442;10.564;2023-04-29T09:27:52;14.88;;;10.10;;
80131;SDS011;69442;51.442;10.564;2023-04-29T09:30:18;15.45;;;10.10;;
80131;SDS011;69442;51.442;10.564;2023-04-29T09:32:45;15.48;;;9.25;;
80131;SDS011;69442;51.442;10.564;2023-04-29T09:35:24;17.25;;;9.88;;
80131;SDS011;69442;51.442;10.564;2023-04-29T09:37:51;15.52;;;9.85;;
80131;SDS011;69442;51.442;10.564;2023-04-29T09:40:32;16.00;;;10.07;;
80131;SDS011;69442;51.442;10.564;2023-04-29T09:42:58;15.20;;;10.18;;
80131;SDS011;69442;51.442;10.564;2023-04-29T09:45:37;17.90;;;10.98;;
80131;SDS011;69442;51.442;10.564;2023-04-29T09:48:06;16.75;;;10.95;;
80131;SDS011;69442;51.442;10.564;2023-04-29T09:50:36;14.68;;;9.93;;
80131;SDS011;69442;51.442;10.564;2023-04-29T09:53:03;15.63;;;10.25;;
80131;SDS011;69442;51.442;10.564;2023-04-29T09:55:31;17.92;;;11.27;;
80131;SDS011;69442;51.442;10.564;2023-04-29T09:57:57;16.83;;;10.93;;
80131;SDS011;69442;51.442;10.564;2023-04-29T10:00:22;18.50;;;11.85;;
80131;SDS011;69442;51.442;10.564;2023-04-29T10:02:49;17.63;;;11.02;;
80131;SDS011;69442;51.442;10.564;2023-04-29T10:05:16;18.75;;;11.98;;
80131;SDS011;69442;51.442;10.564;2023-04-29T10:07:42;16.73;;;11.45;;
80131;SDS011;69442;51.442;10.564;2023-04-29T10:10:11;18.08;;;11.55;;
80131;SDS011;69442;51.442;10.564;2023-04-29T10:12:38;16.80;;;11.50;;
80131;SDS011;69442;51.442;10.564;2023-04-29T10:17:45;17.27;;;12.55;;
80131;SDS011;69442;51.442;10.564;2023-04-29T10:20:14;33.60;;;21.25;;
80131;SDS011;69442;51.442;10.564;2023-04-29T10:22:48;25.45;;;17.73;;
80131;SDS011;69442;51.442;10.564;2023-04-29T10:25:16;17.08;;;11.68;;
80131;SDS011;69442;51.442;10.564;2023-04-29T10:27:43;16.08;;;10.73;;
80131;SDS011;69442;51.442;10.564;2023-04-29T10:30:10;20.85;;;12.48;;
80131;SDS011;69442;51.442;10.564;2023-04-29T10:32:39;18.50;;;11.43;;
80131;SDS011;69442;51.442;10.564;2023-04-29T10:35:06;16.33;;;11.25;;
80131;SDS011;69442;51.442;10.564;2023-04-29T10:37:37;16.27;;;11.48;;
80131;SDS011;69442;51.442;10.564;2023-04-29T10:42:45;16.38;;;11.32;;
80131;SDS011;69442;51.442;10.564;2023-04-29T10:45:25;15.73;;;10.77;;
80131;SDS011;69442;51.442;10.564;2023-04-29T10:51:18;15.55;;;10.95;;
80131;SDS011;69442;51.442;10.564;2023-04-29T10:53:21;14.48;;;10.48;;
80131;SDS011;69442;51.442;10.564;2023-04-29T10:55:47;12.30;;;9.40;;
80131;SDS011;69442;51.442;10.564;2023-04-29T11:01:01;13.68;;;10.10;;
80131;SDS011;69442;51.442;10.564;2023-04-29T11:06:10;11.35;;;8.38;;
80131;SDS011;69442;51.442;10.564;2023-04-29T11:08:36;12.10;;;9.00;;
80131;SDS011;69442;51.442;10.564;2023-04-29T11:11:04;13.68;;;9.50;;
80131;SDS011;69442;51.442;10.564;2023-04-29T11:13:31;12.32;;;8.75;;
80131;SDS011;69442;51.442;10.564;2023-04-29T11:18:33;10.13;;;7.45;;
80131;SDS011;69442;51.442;10.564;2023-04-29T11:23:33;10.27;;;7.57;;
80131;SDS011;69442;51.442;10.564;2023-04-29T11:26:02;10.85;;;8.13;;
80131;SDS011;69442;51.442;10.564;2023-04-29T11:28:31;10.23;;;8.15;;
80131;SDS011;69442;51.442;10.564;2023-04-29T11:30:57;10.40;;;8.00;;
80131;SDS011;69442;51.442;10.564;2023-04-29T11:33:24;11.68;;;8.35;;
80131;SDS011;69442;51.442;10.564;2023-04-29T11:35:53;9.13;;;7.38;;
80131;SDS011;69442;51.442;10.564;2023-04-29T11:38:25;9.98;;;7.03;;
80131;SDS011;69442;51.442;10.564;2023-04-29T11:40:53;8.43;;;6.60;;
80131;SDS011;69442;51.442;10.564;2023-04-29T11:43:19;9.07;;;6.80;;
80131;SDS011;69442;51.442;10.564;2023-04-29T11:45:45;8.07;;;6.63;;
80131;SDS011;69442;51.442;10.564;2023-04-29T11:48:23;10.63;;;7.47;;
80131;SDS011;69442;51.442;10.564;2023-04-29T11:50:50;10.70;;;7.80;;
80131;SDS011;69442;51.442;10.564;2023-04-29T11:53:18;10.57;;;7.55;;
80131;SDS011;69442;51.442;10.564;2023-04-29T11:55:44;11.02;;;6.65;;
80131;SDS011;69442;51.442;10.564;2023-04-29T11:58:11;9.07;;;6.88;;
80131;SDS011;69442;51.442;10.564;2023-04-29T12:00:39;8.25;;;6.60;;
80131;SDS011;69442;51.442;10.564;2023-04-29T12:03:22;8.13;;;5.93;;
80131;SDS011;69442;51.442;10.564;2023-04-29T12:05:49;7.80;;;6.22;;
80131;SDS011;69442;51.442;10.564;2023-04-29T12:08:22;7.18;;;5.50;;
80131;SDS011;69442;51.442;10.564;2023-04-29T12:10:48;9.30;;;6.22;;
80131;SDS011;69442;51.442;10.564;2023-04-29T12:13:17;9.32;;;6.47;;
80131;SDS011;69442;51.442;10.564;2023-04-29T12:15:43;8.90;;;6.22;;
80131;SDS011;69442;51.442;10.564;2023-04-29T12:18:10;7.32;;;6.07;;
80131;SDS011;69442;51.442;10.564;2023-04-29T12:20:36;8.98;;;6.78;;
80131;SDS011;69442;51.442;10.564;2023-04-29T12:23:36;9.10;;;6.55;;
80131;SDS011;69442;51.442;10.564;2023-04-29T12:25:56;8.70;;;6.47;;
80131;SDS011;69442;51.442;10.564;2023-04-29T12:28:24;9.10;;;5.93;;
80131;SDS011;69442;51.442;10.564;2023-04-29T12:30:50;6.60;;;5.35;;
80131;SDS011;69442;51.442;10.564;2023-04-29T12:33:21;8.73;;;6.38;;
80131;SDS011;69442;51.442;10.564;2023-04-29T12:35:52;7.95;;;5.97;;
80131;SDS011;69442;51.442;10.564;2023-04-29T12:38:22;8.02;;;5.82;;
80131;SDS011;69442;51.442;10.564;2023-04-29T12:40:50;8.35;;;6.15;;
80131;SDS011;69442;51.442;10.564;2023-04-29T12:43:16;11.55;;;5.85;;
80131;SDS011;69442;51.442;10.564;2023-04-29T12:45:42;8.77;;;6.43;;
80131;SDS011;69442;51.442;10.564;2023-04-29T12:48:08;11.65;;;6.88;;
80131;SDS011;69442;51.442;10.564;2023-04-29T12:50:36;10.63;;;7.10;;
80131;SDS011;69442;51.442;10.564;2023-04-29T12:53:04;10.43;;;6.65;;
80131;SDS011;69442;51.442;10.564;2023-04-29T12:55:34;11.20;;;6.20;;
80131;SDS011;69442;51.442;10.564;2023-04-29T12:58:01;8.75;;;6.45;;
80131;SDS011;69442;51.442;10.564;2023-04-29T13:00:28;8.80;;;6.30;;
80131;SDS011;69442;51.442;10.564;2023-04-29T13:02:53;7.93;;;6.25;;
80131;SDS011;69442;51.442;10.564;2023-04-29T13:05:19;8.65;;;6.72;;
80131;SDS011;69442;51.442;10.564;2023-04-29T13:07:44;7.70;;;5.60;;
80131;SDS011;69442;51.442;10.564;2023-04-29T13:10:10;9.18;;;5.88;;
80131;SDS011;69442;51.442;10.564;2023-04-29T13:12:36;8.18;;;5.72;;
80131;SDS011;69442;51.442;10.564;2023-04-29T13:15:03;7.55;;;5.90;;
80131;SDS011;69442;51.442;10.564;2023-04-29T13:17:29;8.75;;;5.28;;
80131;SDS011;69442;51.442;10.564;2023-04-29T13:19:54;7.43;;;5.93;;
80131;SDS011;69442;51.442;10.564;2023-04-29T13:22:19;7.13;;;5.57;;
80131;SDS011;69442;51.442;10.564;2023-04-29T13:24:45;9.23;;;6.22;;
80131;SDS011;69442;51.442;10.564;2023-04-29T13:27:11;7.78;;;5.32;;
80131;SDS011;69442;51.442;10.564;2023-04-29T13:29:36;9.80;;;5.63;;
80131;SDS011;69442;51.442;10.564;2023-04-29T13:32:02;10.55;;;6.40;;
80131;SDS011;69442;51.442;10.564;2023-04-29T13:34:27;8.85;;;6.03;;
80131;SDS011;69442;51.442;10.564;2023-04-29T13:36:53;7.50;;;6.53;;
80131;SDS011;69442;51.442;10.564;2023-04-29T13:39:18;8.13;;;6.38;;
80131;SDS011;69442;51.442;10.564;2023-04-29T13:41:46;7.82;;;5.57;;
80131;SDS011;69442;51.442;10.564;2023-04-29T13:44:11;7.63;;;5.72;;
80131;SDS011;69442;51.442;10.564;2023-04-29T13:46:36;6.93;;;5.45;;
80131;SDS011;69442;51.442;10.564;2023-04-29T13:49:02;8.38;;;5.32;;
80131;SDS011;69442;51.442;10.564;2023-04-29T13:51:28;9.82;;;5.65;;
80131;SDS011;69442;51.442;10.564;2023-04-29T13:53:53;7.75;;;5.60;;
80131;SDS011;69442;51.442;10.564;2023-04-29T13:56:18;7.55;;;5.40;;
80131;SDS011;69442;51.442;10.564;2023-04-29T13:58:44;6.80;;;5.30;;
80131;SDS011;69442;51.442;10.564;2023-04-29T14:01:11;7.03;;;5.18;;
80131;SDS011;69442;51.442;10.564;2023-04-29T14:03:36;7.70;;;5.80;;
80131;SDS011;69442;51.442;10.564;2023-04-29T14:06:02;7.53;;;5.57;;
80131;SDS011;69442;51.442;10.564;2023-04-29T14:08:27;8.70;;;5.32;;
80131;SDS011;69442;51.442;10.564;2023-04-29T14:10:53;8.52;;;5.80;;
80131;SDS011;69442;51.442;10.564;2023-04-29T14:13:18;7.93;;;5.10;;
80131;SDS011;69442;51.442;10.564;2023-04-29T14:15:43;7.43;;;4.68;;
80131;SDS011;69442;51.442;10.564;2023-04-29T14:18:09;8.18;;;5.55;;
80131;SDS011;69442;51.442;10.564;2023-04-29T14:20:35;8.48;;;5.80;;
80131;SDS011;69442;51.442;10.564;2023-04-29T14:23:01;6.60;;;5.20;;
80131;SDS011;69442;51.442;10.564;2023-04-29T14:25:26;8.13;;;5.72;;
80131;SDS011;69442;51.442;10.564;2023-04-29T14:27:51;7.32;;;5.43;;
80131;SDS011;69442;51.442;10.564;2023-04-29T14:30:17;6.60;;;4.82;;
80131;SDS011;69442;51.442;10.564;2023-04-29T14:32:42;8.73;;;5.25;;
80131;SDS011;69442;51.442;10.564;2023-04-29T14:35:08;8.63;;;5.28;;
80131;SDS011;69442;51.442;10.564;2023-04-29T14:37:33;7.43;;;5.43;;
80131;SDS011;69442;51.442;10.564;2023-04-29T14:39:59;8.30;;;5.53;;
80131;SDS011;69442;51.442;10.564;2023-04-29T14:42:24;11.25;;;6.15;;
80131;SDS011;69442;51.442;10.564;2023-04-29T14:44:50;7.57;;;5.65;;
80131;SDS011;69442;51.442;10.564;2023-04-29T14:47:15;8.15;;;6.05;;
80131;SDS011;69442;51.442;10.564;2023-04-29T14:49:41;10.35;;;5.82;;
80131;SDS011;69442;51.442;10.564;2023-04-29T14:52:06;7.97;;;5.32;;